createdAt,value
2019-02-17T00:00:50.928Z,96291.56
2019-02-17T00:03:20.882Z,96294.98
2019-02-17T00:05:49.800Z,96297.72
2019-02-17T00:08:18.939Z,96298.67
2019-02-17T00:10:47.900Z,96300.94
2019-02-17T00:13:17.003Z,96302.86
2019-02-17T00:15:45.759Z,96312.20
2019-02-17T00:35:00.817Z,96293.16
2019-02-17T00:37:30.775Z,96294.75
2019-02-17T00:40:00.104Z,96292.98
2019-02-17T00:42:29.215Z,96289.27
2019-02-17T00:58:51.408Z,96280.87
2019-02-17T01:01:21.355Z,96275.87
2019-02-17T01:03:50.166Z,96278.25
2019-02-17T01:06:19.258Z,96274.69
2019-02-17T01:08:48.429Z,96271.95
2019-02-17T01:11:17.440Z,96277.39
2019-02-17T01:13:46.644Z,96270.31
2019-02-17T01:16:16.251Z,96267.56
2019-02-17T01:18:46.135Z,96271.12
2019-02-17T01:21:15.816Z,96261.11
2019-02-17T01:23:45.063Z,96257.39
2019-02-17T01:26:14.650Z,96259.79
2019-02-17T01:28:43.747Z,96261.37
2019-02-17T01:31:12.722Z,96265.55
2019-02-17T01:33:41.754Z,96257.20
2019-02-17T01:36:10.709Z,96257.83
2019-02-17T01:38:40.494Z,96259.75
2019-02-17T01:41:09.443Z,96260.06
2019-02-17T01:43:38.791Z,96256.19
2019-02-17T01:46:08.064Z,96251.91
2019-02-17T01:48:37.135Z,96253.84
2019-02-17T01:51:06.028Z,96255.91
2019-02-17T01:53:35.458Z,96254.62
2019-02-17T01:56:05.240Z,96254.62
2019-02-17T01:58:34.811Z,96256.84
2019-02-17T02:01:04.573Z,96256.99
2019-02-17T02:03:33.464Z,96251.34
2019-02-17T02:06:02.443Z,96243.30
2019-02-17T02:08:31.861Z,96243.45
2019-02-17T02:11:00.954Z,96246.17
2019-02-17T02:13:30.206Z,96242.77
2019-02-17T02:15:59.245Z,96248.07
2019-02-17T02:18:29.246Z,96239.38
2019-02-17T02:20:58.375Z,96242.29
2019-02-17T02:23:27.965Z,96246.47
2019-02-17T02:25:56.941Z,96243.08
2019-02-17T02:28:26.072Z,96234.22
2019-02-17T02:30:55.256Z,96234.38
2019-02-17T02:33:24.950Z,96228.27
2019-02-17T02:35:53.992Z,96237.12
2019-02-17T02:38:23.053Z,96235.83
2019-02-17T02:40:52.037Z,96232.94
2019-02-17T02:43:21.164Z,96236.44
2019-02-17T02:45:50.027Z,96240.56
2019-02-17T02:48:18.914Z,96242.38
2019-02-17T02:50:47.886Z,96242.92
2019-02-17T02:53:16.828Z,96236.14
2019-02-17T02:55:45.891Z,96237.30
2019-02-17T02:58:15.046Z,96236.67
2019-02-17T03:00:44.926Z,96236.02
2019-02-17T03:03:13.789Z,96234.25
2019-02-17T03:05:46.848Z,96236.20
2019-02-17T03:08:15.995Z,96227.01
2019-02-17T03:10:45.184Z,96229.11
2019-02-17T03:13:14.307Z,96231.18
2019-02-17T03:15:43.283Z,96223.72
2019-02-17T03:18:12.187Z,96221.97
2019-02-17T03:20:41.840Z,96217.30
2019-02-17T03:23:10.882Z,96217.92
2019-02-17T03:25:39.865Z,96218.86
2019-02-17T03:28:08.942Z,96224.28
2019-02-17T03:30:38.556Z,96218.86
2019-02-17T03:33:07.636Z,96223.03
2019-02-17T03:35:36.760Z,96226.39
2019-02-17T03:38:05.939Z,96228.87
2019-02-17T03:40:35.056Z,96233.64
2019-02-17T03:43:04.383Z,96224.28
2019-02-17T03:45:33.284Z,96228.34
2019-02-17T03:48:02.768Z,96229.78
2019-02-17T03:50:31.911Z,96231.66
2019-02-17T03:53:00.745Z,96233.56
2019-02-17T03:55:29.683Z,96231.31
2019-02-17T03:57:59.184Z,96230.34
2019-02-17T04:00:28.140Z,96238.52
2019-02-17T04:02:56.899Z,96234.16
2019-02-17T04:05:26.327Z,96241.21
2019-02-17T04:07:55.306Z,96241.05
2019-02-17T04:10:24.642Z,96235.72
2019-02-17T04:12:54.085Z,96236.38
2019-02-17T04:15:23.951Z,96229.17
2019-02-17T04:17:52.931Z,96228.32
2019-02-17T04:20:21.968Z,96224.89
2019-02-17T04:22:51.444Z,96227.77
2019-02-17T04:25:20.727Z,96223.14
2019-02-17T04:27:50.627Z,96231.78
2019-02-17T04:30:28.810Z,96232.38
2019-02-17T04:32:48.711Z,96225.52
2019-02-17T04:35:17.647Z,96223.72
2019-02-17T04:37:47.340Z,96223.61
2019-02-17T04:40:17.070Z,96225.59
2019-02-17T04:42:45.991Z,96223.17
2019-02-17T04:45:15.419Z,96225.40
2019-02-17T04:47:44.947Z,96223.02
2019-02-17T04:50:14.808Z,96231.73
2019-02-17T04:52:43.774Z,96233.33
2019-02-17T04:55:13.042Z,96233.95
2019-02-17T04:57:43.116Z,96240.27
2019-02-17T05:00:13.181Z,96237.85
2019-02-17T05:02:42.201Z,96242.02
2019-02-17T05:05:11.259Z,96244.43
2019-02-17T05:07:40.180Z,96248.74
2019-02-17T05:10:09.194Z,96247.92
2019-02-17T05:12:38.313Z,96245.63
2019-02-17T05:15:07.471Z,96245.89
2019-02-17T05:17:36.365Z,96248.50
2019-02-17T05:20:05.925Z,96252.36
2019-02-17T05:22:35.254Z,96254.30
2019-02-17T05:25:04.099Z,96257.54
2019-02-17T05:27:33.515Z,96258.37
2019-02-17T05:30:03.097Z,96256.97
2019-02-17T05:32:33.046Z,96255.99
2019-02-17T05:35:02.139Z,96264.90
2019-02-17T05:37:31.072Z,96266.53
2019-02-17T05:40:00.112Z,96273.87
2019-02-17T05:42:29.934Z,96271.98
2019-02-17T05:44:59.710Z,96277.17
2019-02-17T05:47:28.667Z,96280.62
2019-02-17T05:49:57.574Z,96280.87
2019-02-17T05:52:27.016Z,96283.84
2019-02-17T05:54:56.711Z,96284.75
2019-02-17T05:57:26.216Z,96287.16
2019-02-17T05:59:55.111Z,96282.08
2019-02-17T06:02:24.035Z,96286.60
2019-02-17T06:04:52.890Z,96285.23
2019-02-17T06:07:22.382Z,96287.76
2019-02-17T06:09:51.678Z,96290.14
2019-02-17T06:12:20.791Z,96290.02
2019-02-17T06:14:49.508Z,96292.51
2019-02-17T06:17:18.493Z,96292.59
2019-02-17T06:19:47.364Z,96284.69
2019-02-17T06:22:17.216Z,96278.41
2019-02-17T06:24:46.400Z,96280.17
2019-02-17T06:27:15.454Z,96275.38
2019-02-17T06:29:44.352Z,96287.72
2019-02-17T06:32:13.481Z,96281.95
2019-02-17T06:34:42.540Z,96280.66
2019-02-17T06:37:11.856Z,96282.52
2019-02-17T06:39:40.985Z,96285.12
2019-02-17T06:42:09.828Z,96290.33
2019-02-17T06:44:39.131Z,96284.29
2019-02-17T06:47:12.669Z,96288.02
2019-02-17T06:49:41.966Z,96294.33
2019-02-17T06:52:11.651Z,96296.77
2019-02-17T06:54:40.853Z,96301.11
2019-02-17T06:57:15.983Z,96297.45
2019-02-17T06:59:45.444Z,96297.34
2019-02-17T07:02:14.307Z,96302.66
2019-02-17T07:04:49.187Z,96296.08
2019-02-17T07:07:18.208Z,96299.48
2019-02-17T07:09:47.323Z,96297.08
2019-02-17T07:12:16.335Z,96297.41
2019-02-17T07:14:45.582Z,96297.92
2019-02-17T07:17:14.747Z,96292.17
2019-02-17T07:19:43.963Z,96289.28
2019-02-17T07:22:13.280Z,96294.78
2019-02-17T07:24:42.588Z,96297.05
2019-02-17T07:27:12.223Z,96301.23
2019-02-17T07:29:41.705Z,96293.17
2019-02-17T07:32:10.831Z,96288.66
2019-02-17T07:34:39.932Z,96291.86
2019-02-17T07:37:09.659Z,96291.52
2019-02-17T07:39:38.493Z,96292.16
2019-02-17T07:42:09.567Z,96287.98
2019-02-17T07:44:37.086Z,96294.61
2019-02-17T07:47:06.199Z,96291.51
2019-02-17T07:49:35.091Z,96283.08
2019-02-17T07:52:04.692Z,96286.82
2019-02-17T07:54:33.928Z,96284.70
2019-02-17T07:57:03.177Z,96283.66
2019-02-17T07:59:33.401Z,96282.26
2019-02-17T08:02:02.642Z,96281.52
2019-02-17T08:04:31.732Z,96277.52
2019-02-17T08:07:01.522Z,96273.42
2019-02-17T08:09:31.121Z,96271.28
2019-02-17T08:12:00.230Z,96266.85
2019-02-17T08:14:29.215Z,96273.87
2019-02-17T08:16:58.255Z,96266.16
2019-02-17T08:19:27.251Z,96266.93
2019-02-17T08:21:56.319Z,96269.96
2019-02-17T08:24:25.207Z,96267.85
2019-02-17T08:26:54.202Z,96269.55
2019-02-17T08:29:23.984Z,96271.92
2019-02-17T08:31:56.126Z,96273.91
2019-02-17T08:34:22.520Z,96268.36
2019-02-17T08:36:51.175Z,96263.14
2019-02-17T08:39:20.931Z,96264.99
2019-02-17T08:41:50.004Z,96262.74
2019-02-17T08:44:19.636Z,96259.17
2019-02-17T08:46:48.534Z,96250.87
2019-02-17T08:49:17.803Z,96255.14
2019-02-17T08:51:46.799Z,96251.23
2019-02-17T08:54:16.349Z,96246.89
2019-02-17T08:56:45.495Z,96245.80
2019-02-17T08:59:14.533Z,96245.69
2019-02-17T09:01:43.580Z,96243.19
2019-02-17T09:04:12.620Z,96248.33
2019-02-17T09:06:41.681Z,96249.69
2019-02-17T09:09:11.350Z,96244.03
2019-02-17T09:11:40.420Z,96238.67
2019-02-17T09:14:09.486Z,96249.81
2019-02-17T09:16:38.615Z,96243.68
2019-02-17T09:19:07.911Z,96248.65
2019-02-17T09:21:36.776Z,96237.83
2019-02-17T09:24:05.867Z,96249.82
2019-02-17T09:26:35.305Z,96240.77
2019-02-17T09:29:04.399Z,96236.53
2019-02-17T09:31:33.501Z,96236.73
2019-02-17T09:34:02.594Z,96230.02
2019-02-17T09:36:31.460Z,96227.84
2019-02-17T09:39:00.547Z,96233.58
2019-02-17T09:41:30.091Z,96229.77
2019-02-17T09:43:59.058Z,96217.62
2019-02-17T09:46:28.705Z,96225.61
2019-02-17T09:48:57.969Z,96220.02
2019-02-17T09:51:27.185Z,96210.06
2019-02-17T09:53:56.471Z,96210.11
2019-02-17T09:56:25.926Z,96207.56
2019-02-17T09:58:54.748Z,96205.16
2019-02-17T10:01:23.753Z,96197.87
2019-02-17T10:03:53.023Z,96186.93
2019-02-17T10:06:22.067Z,96189.73
2019-02-17T10:08:51.088Z,96178.13
2019-02-17T10:11:20.229Z,96181.37
2019-02-17T10:13:49.216Z,96177.36
2019-02-17T10:16:18.538Z,96171.10
2019-02-17T10:18:49.000Z,96163.38
2019-02-17T10:21:18.187Z,96164.41
2019-02-17T10:23:47.258Z,96162.47
2019-02-17T10:26:16.371Z,96160.45
2019-02-17T10:28:45.992Z,96157.96
2019-02-17T10:31:14.829Z,96154.03
2019-02-17T10:33:44.079Z,96159.13
2019-02-17T10:36:13.132Z,96142.12
2019-02-17T10:38:42.027Z,96136.72
2019-02-17T10:41:11.304Z,96133.88
2019-02-17T10:43:40.113Z,96135.41
2019-02-17T10:46:09.127Z,96130.39
2019-02-17T10:48:38.309Z,96119.45
2019-02-17T10:51:07.431Z,96117.55
2019-02-17T10:53:36.808Z,96109.68
2019-02-17T10:56:05.749Z,96097.78
2019-02-17T10:58:34.628Z,96099.62
2019-02-17T11:01:04.108Z,96097.19
2019-02-17T11:03:33.167Z,96088.75
2019-02-17T11:06:02.192Z,96091.98
2019-02-17T11:08:31.982Z,96063.64
2019-02-17T11:11:01.675Z,96076.99
2019-02-17T11:13:30.507Z,96074.48
2019-02-17T11:15:59.662Z,96065.41
2019-02-17T11:18:28.827Z,96065.89
2019-02-17T11:20:57.899Z,96063.70
2019-02-17T11:23:26.795Z,96055.91
2019-02-17T11:25:56.475Z,96046.34
2019-02-17T11:28:26.163Z,96041.91
2019-02-17T11:30:55.545Z,96038.19
2019-02-17T11:33:24.542Z,96030.62
2019-02-17T11:35:53.705Z,96026.64
2019-02-17T11:38:23.332Z,96026.29
2019-02-17T11:40:52.456Z,96021.91
2019-02-17T11:43:21.308Z,96022.97
2019-02-17T11:45:50.407Z,96017.72
2019-02-17T11:48:19.736Z,96011.19
2019-02-17T11:50:48.526Z,96005.75
2019-02-17T11:53:17.248Z,96012.17
2019-02-17T11:55:46.223Z,96002.61
2019-02-17T11:58:15.390Z,95993.70
2019-02-17T12:00:45.191Z,95992.56
2019-02-17T12:03:14.327Z,95989.34
2019-02-17T12:05:43.396Z,95976.42
2019-02-17T12:08:12.902Z,95969.03
2019-02-17T12:10:41.921Z,95967.89
2019-02-17T12:13:11.076Z,95965.70
2019-02-17T12:15:39.760Z,95961.66
2019-02-17T12:18:08.798Z,95964.48
2019-02-17T12:20:48.853Z,95959.98
2019-02-17T12:23:22.724Z,95950.84
2019-02-17T12:25:56.836Z,95947.75
2019-02-17T12:28:32.222Z,95947.02
2019-02-17T12:31:01.241Z,95940.92
2019-02-17T12:33:30.159Z,95931.31
2019-02-17T12:35:59.174Z,95934.78
2019-02-17T12:38:28.264Z,95928.98
2019-02-17T12:40:57.361Z,95928.75
2019-02-17T12:43:26.651Z,95918.95
2019-02-17T12:45:55.758Z,95918.41
2019-02-17T12:48:25.710Z,95910.48
2019-02-17T12:50:55.198Z,95906.27
2019-02-17T12:53:24.168Z,95900.44
2019-02-17T12:55:53.274Z,95900.14
2019-02-17T12:58:29.904Z,95899.36
2019-02-17T13:00:53.230Z,95896.11
2019-02-17T13:03:28.496Z,95891.63
2019-02-17T13:05:51.274Z,95889.42
2019-02-17T13:08:20.284Z,95882.80
2019-02-17T13:10:49.163Z,95885.63
2019-02-17T13:13:19.246Z,95878.19
2019-02-17T13:15:48.193Z,95872.23
2019-02-17T13:18:17.302Z,95871.52
2019-02-17T13:20:46.713Z,95866.44
2019-02-17T13:23:15.569Z,95860.14
2019-02-17T13:25:44.355Z,95857.06
2019-02-17T13:28:13.872Z,95852.92
2019-02-17T13:30:43.467Z,95861.53
2019-02-17T13:33:12.826Z,95865.55
2019-02-17T13:35:41.914Z,95853.77
2019-02-17T13:38:11.813Z,95860.84
2019-02-17T13:40:40.900Z,95857.39
2019-02-17T13:43:09.947Z,95853.97
2019-02-17T13:45:41.363Z,95848.51
2019-02-17T13:48:12.989Z,95852.68
2019-02-17T13:50:43.489Z,95851.98
2019-02-17T13:53:12.914Z,95847.59
2019-02-17T13:55:42.627Z,95842.25
2019-02-17T13:58:11.742Z,95853.06
2019-02-17T14:00:41.013Z,95847.78
2019-02-17T14:03:10.305Z,95857.09
2019-02-17T14:05:39.123Z,95841.45
2019-02-17T14:08:08.326Z,95850.51
2019-02-17T14:10:37.504Z,95851.67
2019-02-17T14:13:08.155Z,95847.09
2019-02-17T14:15:37.416Z,95847.69
2019-02-17T14:18:06.884Z,95836.65
2019-02-17T14:20:35.977Z,95838.27
2019-02-17T14:23:05.211Z,95845.39
2019-02-17T14:25:35.186Z,95843.20
2019-02-17T14:28:05.486Z,95832.99
2019-02-17T14:30:34.355Z,95840.55
2019-02-17T14:33:04.300Z,95844.77
2019-02-17T14:35:33.863Z,95843.49
2019-02-17T14:38:03.105Z,95835.43
2019-02-17T14:40:32.826Z,95835.52
2019-02-17T14:43:02.145Z,95835.72
2019-02-17T14:45:33.148Z,95835.22
2019-02-17T14:48:03.045Z,95840.80
2019-02-17T14:50:32.635Z,95833.36
2019-02-17T14:53:01.494Z,95832.39
2019-02-17T14:55:30.616Z,95823.87
2019-02-17T14:58:05.342Z,95830.94
2019-02-17T15:00:28.839Z,95821.55
2019-02-17T15:02:57.719Z,95823.44
2019-02-17T15:05:27.143Z,95826.24
2019-02-17T15:07:56.242Z,95829.34
2019-02-17T15:10:25.146Z,95830.88
2019-02-17T15:12:54.865Z,95834.51
2019-02-17T15:15:23.972Z,95833.67
2019-02-17T15:17:53.050Z,95840.68
2019-02-17T15:20:22.052Z,95835.84
2019-02-17T15:22:50.981Z,95839.09
2019-02-17T15:25:20.839Z,95832.09
2019-02-17T15:27:49.844Z,95839.99
2019-02-17T15:30:19.178Z,95838.71
2019-02-17T15:32:48.245Z,95838.61
2019-02-17T15:35:18.400Z,95840.86
2019-02-17T15:37:47.313Z,95848.62
2019-02-17T15:40:19.061Z,95838.46
2019-02-17T15:42:48.038Z,95844.58
2019-02-17T15:45:17.664Z,95848.78
2019-02-17T15:47:46.421Z,95854.80
2019-02-17T15:50:15.632Z,95855.61
2019-02-17T15:52:44.837Z,95857.34
2019-02-17T15:55:14.685Z,95871.42
2019-02-17T15:57:44.011Z,95869.19
2019-02-17T16:00:13.622Z,95867.37
2019-02-17T16:02:42.838Z,95873.33
2019-02-17T16:05:12.021Z,95869.76
2019-02-17T16:07:40.759Z,95883.13
2019-02-17T16:10:10.470Z,95879.02
2019-02-17T16:12:39.389Z,95878.58
2019-02-17T16:15:10.791Z,95882.89
2019-02-17T16:17:40.617Z,95888.06
2019-02-17T16:20:11.228Z,95887.61
2019-02-17T16:22:40.301Z,95896.79
2019-02-17T16:25:09.724Z,95890.89
2019-02-17T16:27:38.812Z,95896.02
2019-02-17T16:30:10.813Z,95895.08
2019-02-17T16:32:41.435Z,95900.59
2019-02-17T16:35:10.590Z,95899.36
2019-02-17T16:37:39.727Z,95900.89
2019-02-17T16:40:10.407Z,95899.81
2019-02-17T16:42:39.538Z,95905.33
2019-02-17T16:45:10.668Z,95903.75
2019-02-17T16:47:39.627Z,95905.08
2019-02-17T16:50:11.124Z,95908.82
2019-02-17T16:52:40.562Z,95913.34
2019-02-17T16:55:10.295Z,95915.31
2019-02-17T16:57:39.216Z,95914.58
2019-02-17T17:00:09.783Z,95915.64
2019-02-17T17:02:39.458Z,95916.36
2019-02-17T17:05:09.701Z,95920.28
2019-02-17T17:07:38.786Z,95922.95
2019-02-17T17:10:07.980Z,95927.48
2019-02-17T17:12:37.152Z,95921.30
2019-02-17T17:15:06.915Z,95920.91
2019-02-17T17:17:36.148Z,95921.38
2019-02-17T17:20:05.311Z,95925.19
2019-02-17T17:22:34.384Z,95933.17
2019-02-17T17:25:03.510Z,95930.02
2019-02-17T17:27:32.605Z,95925.73
2019-02-17T17:30:02.361Z,95932.55
2019-02-17T17:32:31.402Z,95933.75
2019-02-17T17:35:00.415Z,95927.46
2019-02-17T17:37:31.371Z,95926.67
2019-02-17T17:40:00.439Z,95932.20
2019-02-17T17:42:29.582Z,95930.83
2019-02-17T17:44:58.743Z,95937.59
2019-02-17T17:47:28.512Z,95934.09
2019-02-17T17:49:57.452Z,95932.29
2019-02-17T17:52:26.671Z,95931.92
2019-02-17T17:54:55.706Z,95938.46
2019-02-17T17:57:24.739Z,95936.27
2019-02-17T17:59:53.608Z,95942.79
2019-02-17T18:02:22.592Z,95941.12
2019-02-17T18:04:51.815Z,95934.53
2019-02-17T18:07:20.823Z,95940.59
2019-02-17T18:09:50.251Z,95941.56
2019-02-17T18:12:19.212Z,95943.40
2019-02-17T18:14:47.931Z,95945.20
2019-02-17T18:17:16.724Z,95947.48
2019-02-17T18:19:45.571Z,95947.33
2019-02-17T18:22:14.601Z,95952.84
2019-02-17T18:24:43.627Z,95943.83
2019-02-17T18:27:12.931Z,95957.01
2019-02-17T18:29:41.942Z,95948.41
2019-02-17T18:32:11.247Z,95944.18
2019-02-17T18:34:40.354Z,95949.40
2019-02-17T18:37:09.329Z,95946.79
2019-02-17T18:39:38.215Z,95948.59
2019-02-17T18:42:07.344Z,95947.86
2019-02-17T18:44:36.395Z,95947.15
2019-02-17T18:47:05.513Z,95952.42
2019-02-17T18:49:34.435Z,95960.36
2019-02-17T18:52:04.252Z,95953.03
2019-02-17T18:54:36.785Z,95950.22
2019-02-17T18:57:08.222Z,95950.94
2019-02-17T18:59:34.658Z,95949.69
2019-02-17T19:02:04.517Z,95957.22
2019-02-17T19:04:33.340Z,95953.59
2019-02-17T19:07:02.363Z,95955.38
2019-02-17T19:09:31.499Z,95966.34
2019-02-17T19:12:00.559Z,95958.97
2019-02-17T19:14:29.520Z,95964.06
2019-02-17T19:16:59.096Z,95970.90
2019-02-17T19:19:27.959Z,95966.29
2019-02-17T19:21:57.072Z,95972.80
2019-02-17T19:24:26.814Z,95969.39
2019-02-17T19:26:56.208Z,95965.80
2019-02-17T19:29:25.172Z,95967.03
2019-02-17T19:31:54.438Z,95966.72
2019-02-17T19:34:23.690Z,95968.52
2019-02-17T19:36:53.217Z,95963.73
2019-02-17T19:39:22.071Z,95969.11
2019-02-17T19:41:51.119Z,95967.70
2019-02-17T19:44:20.008Z,95963.83
2019-02-17T19:46:49.080Z,95967.36
2019-02-17T19:49:18.723Z,95970.98
2019-02-17T19:51:49.642Z,95968.20
2019-02-17T19:54:16.899Z,95972.91
2019-02-17T19:56:46.207Z,95972.21
2019-02-17T19:59:15.042Z,95971.80
2019-02-17T20:01:44.199Z,95970.03
2019-02-17T20:04:24.256Z,95978.33
2019-02-17T20:06:53.451Z,95978.75
2019-02-17T20:09:22.622Z,95976.45
2019-02-17T20:11:52.416Z,95984.87
2019-02-17T20:14:21.033Z,95974.76
2019-02-17T20:16:50.281Z,95989.89
2019-02-17T20:19:19.269Z,95981.09
2019-02-17T20:21:48.707Z,95975.17
2019-02-17T20:24:17.949Z,95980.08
2019-02-17T20:26:47.103Z,95971.27
2019-02-17T20:29:16.416Z,95985.91
2019-02-17T20:31:45.639Z,95982.08
2019-02-17T20:34:14.812Z,95981.91
2019-02-17T20:36:44.036Z,95973.10
2019-02-17T20:39:13.092Z,95976.69
2019-02-17T20:41:42.075Z,95982.30
2019-02-17T20:44:11.529Z,95974.78
2019-02-17T20:46:40.460Z,95979.89
2019-02-17T20:49:09.344Z,95975.39
2019-02-17T20:51:38.665Z,95973.90
2019-02-17T20:54:08.175Z,95975.20
2019-02-17T20:56:37.899Z,95978.10
2019-02-17T20:59:08.027Z,95974.50
2019-02-17T21:01:36.908Z,95978.31
2019-02-17T21:04:05.886Z,95982.91
2019-02-17T21:06:34.942Z,95977.22
2019-02-17T21:09:04.503Z,95975.91
2019-02-17T21:11:34.049Z,95979.02
2019-02-17T21:14:03.184Z,95981.40
2019-02-17T21:16:32.672Z,95977.10
2019-02-17T21:19:01.724Z,95976.01
2019-02-17T21:21:30.903Z,95984.02
2019-02-17T21:24:00.860Z,95986.22
2019-02-17T21:26:31.103Z,95984.68
2019-02-17T21:28:59.956Z,95982.48
2019-02-17T21:31:29.381Z,95991.37
2019-02-17T21:33:59.151Z,95994.92
2019-02-17T21:36:30.337Z,95998.33
2019-02-17T21:39:00.224Z,95992.28
2019-02-17T21:41:29.883Z,95993.02
2019-02-17T21:43:59.032Z,95994.80
2019-02-17T21:46:28.572Z,95997.64
2019-02-17T21:48:57.478Z,96002.07
2019-02-17T21:51:26.653Z,95996.22
2019-02-17T21:53:56.253Z,95998.73
2019-02-17T21:56:25.869Z,95999.69
2019-02-17T21:58:55.579Z,96008.35
2019-02-17T22:01:24.957Z,96007.03
2019-02-17T22:03:54.405Z,96010.11
2019-02-17T22:06:32.926Z,96008.79
2019-02-17T22:08:52.746Z,96018.42
2019-02-17T22:11:22.315Z,96014.76
2019-02-17T22:13:51.838Z,96018.74
2019-02-17T22:16:20.721Z,96012.44
2019-02-17T22:18:50.343Z,96016.39
2019-02-17T22:21:19.461Z,96017.41
2019-02-17T22:23:48.414Z,96015.69
2019-02-17T22:26:17.210Z,96017.53
2019-02-17T22:28:46.334Z,96017.16
2019-02-17T22:31:15.303Z,96016.19
2019-02-17T22:33:44.391Z,96021.23
2019-02-17T22:36:13.630Z,96020.91
2019-02-17T22:38:42.460Z,96022.97
2019-02-17T22:41:12.176Z,96026.80
2019-02-17T22:43:41.483Z,96022.20
2019-02-17T22:46:10.540Z,96023.13
2019-02-17T22:48:39.385Z,96012.41
2019-02-17T22:51:08.418Z,96013.77
2019-02-17T22:53:43.713Z,96017.31
2019-02-17T22:56:07.140Z,96018.34
2019-02-17T22:58:36.138Z,96017.63
2019-02-17T23:01:06.767Z,96024.56
2019-02-17T23:03:36.226Z,96016.36
2019-02-17T23:06:05.568Z,96012.36
2019-02-17T23:08:35.111Z,96020.20
2019-02-17T23:11:04.055Z,96019.94
2019-02-17T23:13:33.459Z,96016.43
2019-02-17T23:16:02.624Z,96022.06
2019-02-17T23:18:31.516Z,96011.75
2019-02-17T23:21:00.539Z,96013.05
2019-02-17T23:23:29.598Z,96015.05
2019-02-17T23:25:58.276Z,96013.45
2019-02-17T23:28:28.059Z,96012.68
2019-02-17T23:30:57.108Z,96008.05
2019-02-17T23:33:25.991Z,96013.75
2019-02-17T23:35:55.247Z,96010.02
2019-02-17T23:38:24.810Z,96004.36
2019-02-17T23:40:55.032Z,96005.98
2019-02-17T23:43:24.600Z,96005.45
2019-02-17T23:45:53.622Z,96008.16
2019-02-17T23:48:22.508Z,96010.22
2019-02-17T23:50:52.308Z,96004.98
2019-02-17T23:53:22.437Z,96013.41
2019-02-17T23:55:51.453Z,96013.41
2019-02-17T23:58:20.832Z,96006.61
